Pagrindinis puslapis
METAR-TAF:

METAR-TAF

Oro uostai :

Zanjan, Iranas

platuma: 36-41N, ilguma: 048-29E, Aukštis: 1663 m

Dabartinis oras

Ataskaita buvo paskelbta 41 minutes, ne 09:00 UTC
Vėjas 4 kt iš Vakarų/Pietvakarių
Temperatūra 23°C
Drėgmė 16%
Slėgis 1023 hPa
Matomumas 10 km arba daugiau
Išsisklaidę debesys ne aukštis 3500 ft

METAR: OITZ 180900Z 24004KT 9999 SCT035 23/M04 Q1023

Laikas: 13:11 (09:41 UTC)


TAF: trūkstamas

Orai ataskaitas ir orų prognozės (METAR, TAF).

turimą stotys yra geltonos ir raudonos taškus žemėlapyje.

Perkelti pele per norėdami pamatyti stoties vardą.

Tada spustelėkite, norėdami matyti oro stebėjimo ir prognozės.

Norėdami pakeisti žemėlapį: spustelėkite ant žalios mygtukų su juodo kryžiaus žemyn,; žalią mygtuką su brūkšneliu, jei norite nutolinti; arba žalių rodyklių gretimoms žemėlapius.


METAR-TAF: